createdAt,value
2023-04-25T00:01:25.258Z,100018.94
2023-04-25T00:03:52.319Z,100019.00
2023-04-25T00:06:19.472Z,100017.25
2023-04-25T00:08:46.169Z,100006.72
2023-04-25T00:11:12.838Z,100011.97
2023-04-25T00:13:42.776Z,100009.44
2023-04-25T00:16:09.642Z,100008.63
2023-04-25T00:18:37.457Z,100000.88
2023-04-25T00:21:04.211Z,100008.75
2023-04-25T00:23:31.034Z,100005.25
2023-04-25T00:25:57.684Z,100007.00
2023-04-25T00:28:24.317Z,100003.44
2023-04-25T00:30:51.340Z,100003.38
2023-04-25T00:33:18.044Z,99999.81
2023-04-25T00:35:44.717Z,99998.97
2023-04-25T00:38:11.371Z,100004.31
2023-04-25T00:40:38.020Z,99998.19
2023-04-25T00:43:06.465Z,99994.66
2023-04-25T00:45:38.873Z,99991.13
2023-04-25T00:48:06.541Z,99989.44
2023-04-25T00:50:38.057Z,99991.13
2023-04-25T00:53:04.968Z,99993.75
2023-04-25T00:55:32.565Z,99985.03
2023-04-25T00:57:59.376Z,99988.59
2023-04-25T01:00:26.163Z,99988.59
2023-04-25T01:02:53.452Z,99988.69
2023-04-25T01:05:20.320Z,99989.66
2023-04-25T01:07:46.996Z,99985.28
2023-04-25T01:10:13.755Z,99981.75
2023-04-25T01:12:41.040Z,99981.75
2023-04-25T01:15:07.975Z,99979.22
2023-04-25T01:17:36.687Z,99974.03
2023-04-25T01:20:08.514Z,99959.19
2023-04-25T01:22:35.609Z,99953.22
2023-04-25T01:25:02.740Z,99937.59
2023-04-25T01:27:30.381Z,99932.44
2023-04-25T01:29:57.754Z,99933.41
2023-04-25T01:32:25.056Z,99932.63
2023-04-25T01:34:51.758Z,99927.47
2023-04-25T01:37:18.872Z,99924.06
2023-04-25T01:39:45.832Z,99907.50
2023-04-25T01:42:14.703Z,99895.28
2023-04-25T01:44:41.450Z,99898.06
2023-04-25T01:47:08.176Z,99905.09
2023-04-25T01:49:34.884Z,99905.94
2023-04-25T01:52:01.631Z,99898.06
2023-04-25T01:54:28.320Z,99903.47
2023-04-25T01:56:59.009Z,99906.16
2023-04-25T01:59:26.666Z,99920.22
2023-04-25T02:01:53.436Z,99921.28
2023-04-25T02:04:20.796Z,99914.41
2023-04-25T02:06:47.556Z,99917.09
2023-04-25T02:09:14.259Z,99927.59
2023-04-25T02:11:40.993Z,99930.16
2023-04-25T02:14:07.690Z,99907.31
2023-04-25T02:16:34.440Z,99895.75
2023-04-25T02:19:01.230Z,99879.97
2023-04-25T02:21:27.888Z,99879.13
2023-04-25T02:23:54.984Z,99884.47
2023-04-25T02:26:24.767Z,99884.38
2023-04-25T02:28:52.731Z,99888.75
2023-04-25T02:31:19.674Z,99880.91
2023-04-25T02:33:46.341Z,99880.09
2023-04-25T02:36:12.989Z,99866.13
2023-04-25T02:38:39.943Z,99856.47
2023-04-25T02:41:12.363Z,99846.97
2023-04-25T02:43:39.077Z,99847.03
2023-04-25T02:46:05.866Z,99853.13
2023-04-25T02:48:32.525Z,99858.47
2023-04-25T02:50:59.192Z,99863.63
2023-04-25T02:53:25.902Z,99854.84
2023-04-25T02:55:53.754Z,99845.19
2023-04-25T02:58:20.805Z,99830.22
2023-04-25T03:00:47.524Z,99818.88
2023-04-25T03:03:14.479Z,99814.53
2023-04-25T03:05:41.224Z,99817.22
2023-04-25T03:08:07.976Z,99815.53
2023-04-25T03:10:34.677Z,99814.69
2023-04-25T03:13:01.416Z,99813.00
2023-04-25T03:15:28.156Z,99799.84
2023-04-25T03:17:54.848Z,99795.44
2023-04-25T03:20:21.612Z,99798.00
2023-04-25T03:22:48.290Z,99806.72
2023-04-25T03:25:14.939Z,99786.63
2023-04-25T03:27:41.634Z,99784.88
2023-04-25T03:30:08.952Z,99782.31
2023-04-25T03:32:36.341Z,99797.16
2023-04-25T03:35:03.072Z,99798.94
2023-04-25T03:37:29.808Z,99793.75
2023-04-25T03:39:56.454Z,99806.09
2023-04-25T03:42:24.047Z,99799.13
2023-04-25T03:44:52.480Z,99789.56
2023-04-25T03:47:19.146Z,99800.97
2023-04-25T03:49:45.800Z,99797.53
2023-04-25T03:52:12.538Z,99795.69
2023-04-25T03:54:39.308Z,99791.19
2023-04-25T03:57:06.040Z,99775.44
2023-04-25T03:59:32.714Z,99781.47
2023-04-25T04:01:59.417Z,99775.22
2023-04-25T04:04:26.356Z,99770.75
2023-04-25T04:06:53.594Z,99762.84
2023-04-25T04:09:21.500Z,99746.19
2023-04-25T04:11:48.155Z,99743.56
2023-04-25T04:14:14.854Z,99736.53
2023-04-25T04:16:41.671Z,99734.78
2023-04-25T04:19:08.439Z,99737.53
2023-04-25T04:21:35.594Z,99743.66
2023-04-25T04:24:02.287Z,99735.69
2023-04-25T04:26:29.007Z,99737.31
2023-04-25T04:28:56.092Z,99736.38
2023-04-25T04:31:23.672Z,99735.44
2023-04-25T04:33:51.113Z,99750.28
2023-04-25T04:36:20.950Z,99752.06
2023-04-25T04:38:47.625Z,99754.72
2023-04-25T04:41:14.283Z,99753.84
2023-04-25T04:43:41.078Z,99758.22
2023-04-25T04:46:07.778Z,99763.38
2023-04-25T04:48:35.421Z,99764.19
2023-04-25T04:51:02.288Z,99751.81
2023-04-25T04:53:29.077Z,99758.00
2023-04-25T04:55:55.944Z,99764.97
2023-04-25T04:58:22.760Z,99765.03
2023-04-25T05:00:49.670Z,99768.50
2023-04-25T05:03:16.837Z,99756.19
2023-04-25T05:05:43.703Z,99756.09
2023-04-25T05:08:10.469Z,99749.88
2023-04-25T05:10:37.123Z,99743.69
2023-04-25T05:13:03.929Z,99739.28
2023-04-25T05:15:30.866Z,99734.81
2023-04-25T05:17:57.772Z,99733.88
2023-04-25T05:20:24.615Z,99733.09
2023-04-25T05:22:51.268Z,99723.44
2023-04-25T05:25:18.191Z,99720.72
2023-04-25T05:27:44.869Z,99719.06
2023-04-25T05:30:11.774Z,99717.34
2023-04-25T05:32:38.604Z,99723.38
2023-04-25T05:35:07.968Z,99718.97
2023-04-25T05:37:34.894Z,99723.31
2023-04-25T05:40:01.722Z,99725.03
2023-04-25T05:42:28.411Z,99713.63
2023-04-25T05:44:55.066Z,99721.50
2023-04-25T05:47:21.722Z,99715.41
2023-04-25T05:49:48.367Z,99716.28
2023-04-25T05:52:16.152Z,99710.25
2023-04-25T05:54:42.804Z,99720.72
2023-04-25T05:57:09.551Z,99728.53
2023-04-25T05:59:36.905Z,99717.09
2023-04-25T06:02:03.613Z,99721.34
2023-04-25T06:04:30.662Z,99716.88
2023-04-25T06:06:57.472Z,99724.63
2023-04-25T06:09:24.138Z,99730.66
2023-04-25T06:11:50.835Z,99722.72
2023-04-25T06:14:17.583Z,99712.94
2023-04-25T06:16:44.241Z,99712.03
2023-04-25T06:19:11.010Z,99705.91
2023-04-25T06:21:37.669Z,99704.06
2023-04-25T06:24:04.743Z,99710.22
2023-04-25T06:26:31.433Z,99713.59
2023-04-25T06:28:58.082Z,99698.69
2023-04-25T06:31:24.881Z,99707.34
2023-04-25T06:33:51.894Z,99699.38
2023-04-25T06:36:18.758Z,99707.25
2023-04-25T06:38:45.574Z,99714.13
2023-04-25T06:41:12.251Z,99704.47
2023-04-25T06:43:38.911Z,99698.28
2023-04-25T06:46:05.613Z,99693.00
2023-04-25T06:48:32.330Z,99718.38
2023-04-25T06:50:59.036Z,99728.06
2023-04-25T06:53:25.765Z,99718.53
2023-04-25T06:55:52.485Z,99719.38
2023-04-25T06:58:19.698Z,99723.69
2023-04-25T07:00:46.368Z,99726.25
2023-04-25T07:03:13.256Z,99727.09
2023-04-25T07:05:40.240Z,99723.44
2023-04-25T07:08:06.996Z,99709.34
2023-04-25T07:10:33.668Z,99725.78
2023-04-25T07:13:00.422Z,99726.44
2023-04-25T07:15:27.100Z,99719.25
2023-04-25T07:17:53.857Z,99726.22
2023-04-25T07:20:20.875Z,99726.97
2023-04-25T07:22:47.700Z,99724.25
2023-04-25T07:25:14.409Z,99738.09
2023-04-25T07:27:41.097Z,99745.06
2023-04-25T07:30:08.491Z,99754.63
2023-04-25T07:32:35.823Z,99748.34
2023-04-25T07:35:03.114Z,99752.56
2023-04-25T07:37:29.884Z,99744.56
2023-04-25T07:39:56.584Z,99743.53
2023-04-25T07:42:23.282Z,99748.66
2023-04-25T07:44:49.933Z,99741.50
2023-04-25T07:47:16.662Z,99747.47
2023-04-25T07:49:43.380Z,99747.34
2023-04-25T07:52:10.054Z,99735.88
2023-04-25T07:54:36.731Z,99741.88
2023-04-25T07:57:03.584Z,99745.28
2023-04-25T07:59:30.807Z,99743.28
2023-04-25T08:01:58.611Z,99741.47
2023-04-25T08:04:26.951Z,99740.63
2023-04-25T08:06:54.848Z,99747.59
2023-04-25T08:09:21.937Z,99740.56
2023-04-25T08:11:49.177Z,99737.09
2023-04-25T08:14:15.877Z,99734.47
2023-04-25T08:16:43.215Z,99743.41
2023-04-25T08:19:11.302Z,99741.84
2023-04-25T08:21:38.058Z,99745.47
2023-04-25T08:24:05.024Z,99748.25
2023-04-25T08:26:31.737Z,99752.72
2023-04-25T08:28:58.374Z,99744.81
2023-04-25T08:31:25.080Z,99750.81
2023-04-25T08:33:53.114Z,99762.16
2023-04-25T08:36:31.584Z,99759.56
2023-04-25T08:39:05.917Z,99760.59
2023-04-25T08:41:32.892Z,99771.28
2023-04-25T08:44:01.570Z,99768.59
2023-04-25T08:46:28.914Z,99771.81
2023-04-25T08:48:59.628Z,99771.41
2023-04-25T08:51:29.110Z,99770.34
2023-04-25T08:53:57.938Z,99778.16
2023-04-25T08:56:29.048Z,99785.91
2023-04-25T08:58:56.652Z,99771.84
2023-04-25T09:01:23.420Z,99776.94
2023-04-25T09:03:50.547Z,99780.00
2023-04-25T09:06:19.015Z,99773.72
2023-04-25T09:08:45.693Z,99786.03
2023-04-25T09:11:14.428Z,99776.34
2023-04-25T09:13:41.206Z,99784.16
2023-04-25T09:16:07.943Z,99782.38
2023-04-25T09:18:35.973Z,99784.81
2023-04-25T09:21:14.152Z,99784.81
2023-04-25T09:23:46.167Z,99786.69
2023-04-25T09:26:18.060Z,99786.69
2023-04-25T09:28:44.814Z,99785.53
2023-04-25T09:31:14.644Z,99791.28
2023-04-25T09:33:41.930Z,99791.06
2023-04-25T09:36:12.295Z,99796.09
2023-04-25T09:38:47.256Z,99795.16
2023-04-25T09:41:14.210Z,99791.34
2023-04-25T09:43:41.071Z,99794.56
2023-04-25T09:46:12.530Z,99796.03
2023-04-25T09:48:39.303Z,99797.47
2023-04-25T09:51:17.596Z,99798.88
2023-04-25T09:53:47.410Z,99802.97
2023-04-25T09:56:14.551Z,99808.66
2023-04-25T09:58:42.184Z,99818.06
2023-04-25T10:01:11.127Z,99809.94
2023-04-25T10:03:46.063Z,99813.41
2023-04-25T10:06:23.583Z,99816.84
2023-04-25T10:08:52.383Z,99821.88
2023-04-25T10:11:19.380Z,99817.31
2023-04-25T10:13:47.036Z,99818.00
2023-04-25T10:16:14.676Z,99811.19
2023-04-25T10:18:41.782Z,99821.25
2023-04-25T10:21:08.617Z,99821.94
2023-04-25T10:23:36.271Z,99824.47
2023-04-25T10:26:03.213Z,99826.41
2023-04-25T10:28:29.862Z,99824.81
2023-04-25T10:31:04.943Z,99830.22
2023-04-25T10:33:35.835Z,99831.03
2023-04-25T10:36:13.932Z,99838.44
2023-04-25T10:38:41.284Z,99839.06
2023-04-25T10:41:10.490Z,99844.97
2023-04-25T10:43:43.982Z,99843.75
2023-04-25T10:46:24.423Z,99846.25
2023-04-25T10:48:56.417Z,99841.72
2023-04-25T10:51:24.188Z,99839.09
2023-04-25T10:53:56.888Z,99842.56
2023-04-25T10:56:26.685Z,99842.47
2023-04-25T10:59:15.805Z,99839.69
2023-04-25T11:01:45.229Z,99847.41
2023-04-25T11:04:37.301Z,99850.66
2023-04-25T11:07:08.346Z,99852.19
2023-04-25T11:09:37.079Z,99845.16
2023-04-25T11:12:04.002Z,99846.91
2023-04-25T11:14:30.732Z,99851.34
2023-04-25T11:17:03.131Z,99853.81
2023-04-25T11:19:30.554Z,99854.03
2023-04-25T11:21:58.507Z,99857.47
2023-04-25T11:24:29.050Z,99854.63
2023-04-25T11:26:56.187Z,99864.13
2023-04-25T11:29:30.128Z,99866.78
2023-04-25T11:31:59.153Z,99859.72
2023-04-25T11:34:27.126Z,99863.19
2023-04-25T11:36:54.516Z,99869.41
2023-04-25T11:39:21.685Z,99865.72
2023-04-25T11:41:48.733Z,99864.72
2023-04-25T11:44:19.697Z,99867.41
2023-04-25T11:46:47.267Z,99867.75
2023-04-25T11:49:15.193Z,99866.47
2023-04-25T11:51:44.362Z,99865.69
2023-04-25T11:54:12.826Z,99858.81
2023-04-25T11:56:43.458Z,99859.03
2023-04-25T11:59:10.777Z,99865.34
2023-04-25T12:01:39.912Z,99862.75
2023-04-25T12:04:16.851Z,99859.97
2023-04-25T12:06:47.728Z,99866.00
2023-04-25T12:09:16.938Z,99862.31
2023-04-25T12:11:45.462Z,99853.28
2023-04-25T12:14:13.235Z,99852.19
2023-04-25T12:16:47.881Z,99854.63
2023-04-25T12:19:16.345Z,99854.28
2023-04-25T12:21:54.423Z,99863.72
2023-04-25T12:24:26.718Z,99862.81
2023-04-25T12:27:06.618Z,99861.19
2023-04-25T12:29:46.009Z,99865.59
2023-04-25T12:32:16.366Z,99867.28
2023-04-25T12:34:43.544Z,99872.81
2023-04-25T12:37:11.433Z,99868.41
2023-04-25T12:39:38.450Z,99873.50
2023-04-25T12:42:07.689Z,99859.22
2023-04-25T12:44:36.143Z,99866.09
2023-04-25T12:47:04.356Z,99865.94
2023-04-25T12:49:31.294Z,99862.13
2023-04-25T12:51:58.152Z,99857.66
2023-04-25T12:54:25.741Z,99864.44
2023-04-25T12:56:52.565Z,99853.56
2023-04-25T12:59:19.636Z,99859.56
2023-04-25T13:01:46.655Z,99857.91
2023-04-25T13:04:13.550Z,99859.63
2023-04-25T13:06:40.658Z,99855.91
2023-04-25T13:09:07.951Z,99853.00
2023-04-25T13:11:34.677Z,99850.09
2023-04-25T13:14:02.088Z,99841.75
2023-04-25T13:16:28.825Z,99847.63
2023-04-25T13:18:57.311Z,99842.75
2023-04-25T13:21:24.375Z,99844.03
2023-04-25T13:23:51.583Z,99842.69
2023-04-25T13:26:18.621Z,99853.72
2023-04-25T13:28:45.297Z,99853.38
2023-04-25T13:31:12.148Z,99844.19
2023-04-25T13:33:38.866Z,99851.06
2023-04-25T13:36:06.727Z,99836.03
2023-04-25T13:38:33.713Z,99839.47
2023-04-25T13:41:00.649Z,99836.59
2023-04-25T13:43:27.293Z,99837.44
2023-04-25T13:45:54.088Z,99836.59
2023-04-25T13:48:21.404Z,99829.59
2023-04-25T13:50:48.129Z,99842.88
2023-04-25T13:53:14.831Z,99836.81
2023-04-25T13:55:41.596Z,99840.19
2023-04-25T13:58:09.055Z,99843.59
2023-04-25T14:00:40.470Z,99835.59
2023-04-25T14:03:10.937Z,99823.97
2023-04-25T14:05:39.255Z,99818.53
2023-04-25T14:08:11.022Z,99817.09
2023-04-25T14:10:38.369Z,99814.03
2023-04-25T14:13:05.694Z,99809.84
2023-04-25T14:15:33.297Z,99815.34
2023-04-25T14:18:01.718Z,99817.38
2023-04-25T14:20:28.886Z,99807.47
2023-04-25T14:22:57.158Z,99811.72
2023-04-25T14:25:24.476Z,99800.22
2023-04-25T14:27:51.430Z,99808.94
2023-04-25T14:30:19.734Z,99806.22
2023-04-25T14:32:46.789Z,99808.88
2023-04-25T14:35:13.868Z,99801.91
2023-04-25T14:37:41.080Z,99803.88
2023-04-25T14:40:13.108Z,99808.16
2023-04-25T14:42:40.865Z,99801.06
2023-04-25T14:45:09.608Z,99794.81
2023-04-25T14:47:39.235Z,99798.31
2023-04-25T14:50:07.737Z,99803.63
2023-04-25T14:52:34.413Z,99804.56
2023-04-25T14:55:02.809Z,99806.28
2023-04-25T14:57:29.513Z,99804.56
2023-04-25T14:59:56.354Z,99802.88
2023-04-25T15:02:23.628Z,99818.78
2023-04-25T15:04:50.487Z,99809.97
2023-04-25T15:07:18.533Z,99803.03
2023-04-25T15:09:45.531Z,99805.72
2023-04-25T15:12:13.113Z,99794.28
2023-04-25T15:14:39.790Z,99794.28
2023-04-25T15:17:06.500Z,99794.28
2023-04-25T15:19:33.448Z,99799.56
2023-04-25T15:22:03.964Z,99802.22
2023-04-25T15:24:30.745Z,99804.88
2023-04-25T15:26:57.654Z,99802.31
2023-04-25T15:29:24.304Z,99804.13
2023-04-25T15:31:51.350Z,99797.97
2023-04-25T15:34:18.232Z,99806.06
2023-04-25T15:36:45.019Z,99810.69
2023-04-25T15:39:11.974Z,99817.03
2023-04-25T15:41:38.835Z,99823.69
2023-04-25T15:44:05.623Z,99815.44
2023-04-25T15:46:32.461Z,99830.25
2023-04-25T15:48:59.301Z,99826.56
2023-04-25T15:51:27.019Z,99832.56
2023-04-25T15:53:54.128Z,99828.75
2023-04-25T15:56:21.511Z,99839.03
2023-04-25T15:58:48.568Z,99833.31
2023-04-25T16:01:15.863Z,99836.31
2023-04-25T16:03:42.888Z,99837.31
2023-04-25T16:06:09.656Z,99829.59
2023-04-25T16:08:36.453Z,99840.28
2023-04-25T16:11:03.609Z,99829.81
2023-04-25T16:13:30.355Z,99838.75
2023-04-25T16:15:57.792Z,99845.13
2023-04-25T16:18:24.700Z,99838.16
2023-04-25T16:20:51.458Z,99844.44
2023-04-25T16:23:18.639Z,99844.59
2023-04-25T16:25:45.897Z,99842.16
2023-04-25T16:28:12.702Z,99840.50
2023-04-25T16:30:39.510Z,99840.59
2023-04-25T16:33:06.259Z,99839.06
2023-04-25T16:35:33.079Z,99845.41
2023-04-25T16:37:59.921Z,99849.03
2023-04-25T16:40:27.296Z,99834.97
2023-04-25T16:42:53.965Z,99841.09
2023-04-25T16:45:21.572Z,99842.03
2023-04-25T16:47:48.303Z,99841.09
2023-04-25T16:50:15.369Z,99838.56
2023-04-25T16:52:44.149Z,99838.59
2023-04-25T16:55:11.232Z,99843.88
2023-04-25T16:57:38.220Z,99840.47
2023-04-25T17:00:06.891Z,99840.47
2023-04-25T17:02:33.688Z,99840.34
2023-04-25T17:05:00.523Z,99839.41
2023-04-25T17:07:27.968Z,99835.94
2023-04-25T17:09:54.695Z,99835.94
2023-04-25T17:12:21.901Z,99838.59
2023-04-25T17:14:49.773Z,99832.66
2023-04-25T17:17:18.792Z,99842.44
2023-04-25T17:19:46.720Z,99844.34
2023-04-25T17:22:13.492Z,99847.00
2023-04-25T17:24:40.755Z,99845.22
2023-04-25T17:27:07.706Z,99840.88
2023-04-25T17:29:35.257Z,99831.94
2023-04-25T17:32:02.052Z,99832.72
2023-04-25T17:34:29.214Z,99837.09
2023-04-25T17:36:55.875Z,99839.66
2023-04-25T17:39:22.559Z,99844.94
2023-04-25T17:41:49.358Z,99842.31
2023-04-25T17:44:16.059Z,99846.66
2023-04-25T17:46:42.785Z,99850.25
2023-04-25T17:49:09.483Z,99849.31
2023-04-25T17:51:36.168Z,99846.66
2023-04-25T17:54:03.035Z,99853.69
2023-04-25T17:56:30.728Z,99847.59
2023-04-25T17:58:57.613Z,99843.13
2023-04-25T18:01:24.351Z,99847.47
2023-04-25T18:03:51.888Z,99850.13
2023-04-25T18:06:19.371Z,99848.41
2023-04-25T18:08:47.285Z,99844.91
2023-04-25T18:11:14.253Z,99847.53
2023-04-25T18:13:41.610Z,99856.47
2023-04-25T18:16:08.621Z,99859.25
2023-04-25T18:18:36.372Z,99866.44
2023-04-25T18:21:05.378Z,99855.91
2023-04-25T18:23:34.304Z,99854.34
2023-04-25T18:26:02.168Z,99852.63
2023-04-25T18:28:29.364Z,99854.47
2023-04-25T18:30:56.779Z,99864.28
2023-04-25T18:33:23.727Z,99855.47
2023-04-25T18:35:58.832Z,99861.69
2023-04-25T18:41:08.348Z,99861.75
2023-04-25T18:43:44.431Z,99869.81
2023-04-25T18:46:11.424Z,99869.09
2023-04-25T18:48:38.117Z,99869.13
2023-04-25T18:51:05.700Z,99871.00
2023-04-25T18:53:32.591Z,99878.94
2023-04-25T18:55:59.276Z,99872.81
2023-04-25T18:58:26.409Z,99884.41
2023-04-25T19:00:53.565Z,99880.06
2023-04-25T19:03:21.255Z,99878.41
2023-04-25T19:05:48.111Z,99879.38
2023-04-25T19:08:14.762Z,99879.47
2023-04-25T19:10:41.457Z,99882.97
2023-04-25T19:13:08.649Z,99883.03
2023-04-25T19:15:35.447Z,99888.31
2023-04-25T19:18:02.900Z,99880.41
2023-04-25T19:20:29.648Z,99881.44
2023-04-25T19:22:56.853Z,99884.94
2023-04-25T19:25:24.974Z,99879.66
2023-04-25T19:27:51.980Z,99885.81
2023-04-25T19:30:18.858Z,99890.28
2023-04-25T19:32:46.047Z,99889.53
2023-04-25T19:35:13.511Z,99894.94
2023-04-25T19:37:46.335Z,99887.16
2023-04-25T19:40:19.686Z,99891.66
2023-04-25T19:42:46.542Z,99897.06
2023-04-25T19:45:13.725Z,99901.50
2023-04-25T19:47:42.014Z,99890.97
2023-04-25T19:50:09.588Z,99883.16
2023-04-25T19:52:37.246Z,99895.47
2023-04-25T19:55:05.118Z,99894.66
2023-04-25T19:57:33.625Z,99892.13
2023-04-25T20:00:02.006Z,99886.84
2023-04-25T20:02:28.765Z,99886.97
2023-04-25T20:04:55.531Z,99895.25
2023-04-25T20:07:23.627Z,99886.59
2023-04-25T20:09:50.422Z,99878.75
2023-04-25T20:12:18.109Z,99889.31
2023-04-25T20:14:45.138Z,99887.59
2023-04-25T20:17:12.253Z,99887.59
2023-04-25T20:19:39.744Z,99879.59
2023-04-25T20:22:06.513Z,99881.31
2023-04-25T20:24:33.206Z,99878.63
2023-04-25T20:27:00.108Z,99881.31
2023-04-25T20:29:27.131Z,99877.94
2023-04-25T20:31:55.018Z,99871.00
2023-04-25T20:34:22.576Z,99876.28
2023-04-25T20:36:49.264Z,99876.22
2023-04-25T20:39:16.015Z,99870.00
2023-04-25T20:41:44.779Z,99873.56
2023-04-25T20:44:12.453Z,99871.06
2023-04-25T20:46:39.992Z,99871.28
2023-04-25T20:49:07.717Z,99877.50
2023-04-25T20:51:37.601Z,99884.69
2023-04-25T20:54:04.330Z,99873.50
2023-04-25T20:56:31.070Z,99876.25
2023-04-25T20:58:58.434Z,99866.66
2023-04-25T21:01:25.440Z,99871.16
2023-04-25T21:03:53.020Z,99872.13
2023-04-25T21:06:19.811Z,99859.00
2023-04-25T21:08:46.492Z,99860.75
2023-04-25T21:11:13.181Z,99861.63
2023-04-25T21:13:39.866Z,99858.13
2023-04-25T21:16:06.777Z,99856.38
2023-04-25T21:18:34.839Z,99851.94
2023-04-25T21:21:04.280Z,99852.84
2023-04-25T21:23:31.916Z,99856.47
2023-04-25T21:25:58.597Z,99851.31
2023-04-25T21:28:25.397Z,99851.31
2023-04-25T21:30:52.576Z,99843.59
2023-04-25T21:33:19.405Z,99846.38
2023-04-25T21:35:46.355Z,99846.44
2023-04-25T21:38:13.123Z,99849.09
2023-04-25T21:40:40.552Z,99845.63
2023-04-25T21:43:07.580Z,99846.56
2023-04-25T21:45:43.343Z,99840.47
2023-04-25T21:48:21.830Z,99851.09
2023-04-25T21:50:48.484Z,99847.59
2023-04-25T21:53:15.157Z,99848.47
2023-04-25T21:55:41.835Z,99850.28
2023-04-25T21:58:08.458Z,99845.94
2023-04-25T22:00:35.127Z,99844.25
2023-04-25T22:03:01.983Z,99849.59
2023-04-25T22:05:29.543Z,99854.06
2023-04-25T22:07:59.191Z,99850.56
2023-04-25T22:10:25.936Z,99843.59
2023-04-25T22:12:52.985Z,99847.94
2023-04-25T22:15:21.583Z,99839.09
2023-04-25T22:17:48.752Z,99854.91
2023-04-25T22:20:15.748Z,99838.31
2023-04-25T22:22:43.044Z,99836.69
2023-04-25T22:25:12.825Z,99842.09
2023-04-25T22:27:43.877Z,99847.41
2023-04-25T22:30:15.486Z,99843.16
2023-04-25T22:32:43.984Z,99844.09
2023-04-25T22:35:11.724Z,99833.59
2023-04-25T22:37:40.831Z,99836.22
2023-04-25T22:40:09.176Z,99838.06
2023-04-25T22:42:40.290Z,99826.63
2023-04-25T22:45:08.293Z,99838.06
2023-04-25T22:47:39.112Z,99834.50
2023-04-25T22:50:12.307Z,99832.66
2023-04-25T22:52:39.212Z,99827.34
2023-04-25T22:55:06.628Z,99830.03
2023-04-25T22:57:33.346Z,99829.97
2023-04-25T23:00:00.055Z,99830.84
2023-04-25T23:02:27.459Z,99827.25
2023-04-25T23:04:55.055Z,99831.53
2023-04-25T23:07:21.980Z,99828.91
2023-04-25T23:09:49.372Z,99827.16
2023-04-25T23:12:21.694Z,99830.72
2023-04-25T23:14:52.000Z,99827.34
2023-04-25T23:17:18.704Z,99830.09
2023-04-25T23:19:45.376Z,99831.06
2023-04-25T23:22:12.611Z,99835.47
2023-04-25T23:24:39.278Z,99832.81
2023-04-25T23:27:06.213Z,99830.94
2023-04-25T23:29:34.235Z,99830.94
2023-04-25T23:32:04.326Z,99825.56
2023-04-25T23:34:31.790Z,99830.91
2023-04-25T23:37:01.280Z,99830.03
2023-04-25T23:39:28.528Z,99826.41
2023-04-25T23:41:55.876Z,99829.88
2023-04-25T23:44:22.708Z,99829.03
2023-04-25T23:46:50.432Z,99824.59
2023-04-25T23:49:17.130Z,99828.09
2023-04-25T23:51:43.813Z,99827.13
2023-04-25T23:54:10.529Z,99832.31
2023-04-25T23:56:37.216Z,99837.59
2023-04-25T23:59:04.043Z,99830.72
